createdAt,value
2018-06-04T00:00:10.465Z,34.83
2018-06-04T00:02:39.271Z,33.97
2018-06-04T00:05:08.084Z,34.50
2018-06-04T00:07:36.894Z,35.37
2018-06-04T00:10:05.722Z,36.23
2018-06-04T00:12:34.550Z,35.30
2018-06-04T00:15:03.417Z,35.83
2018-06-04T00:17:32.252Z,35.23
2018-06-04T00:20:01.113Z,37.13
2018-06-04T00:22:30.787Z,36.03
2018-06-04T00:24:59.627Z,38.47
2018-06-04T00:27:28.463Z,38.20
2018-06-04T00:29:57.269Z,37.37
2018-06-04T00:32:26.070Z,37.93
2018-06-04T00:34:54.914Z,38.40
2018-06-04T00:37:23.754Z,38.17
2018-06-04T00:39:52.571Z,38.67
2018-06-04T00:42:20.976Z,37.77
2018-06-04T00:44:49.785Z,38.27
2018-06-04T00:47:18.559Z,38.87
2018-06-04T00:49:47.557Z,37.77
2018-06-04T00:52:16.419Z,39.10
2018-06-04T00:54:45.269Z,39.83
2018-06-04T00:57:14.095Z,38.77
2018-06-04T00:59:42.879Z,37.23
2018-06-04T01:02:11.712Z,38.53
2018-06-04T01:04:40.516Z,37.93
2018-06-04T01:07:09.343Z,38.00
2018-06-04T01:09:38.160Z,38.50
2018-06-04T01:12:06.979Z,38.60
2018-06-04T01:14:35.842Z,39.40
2018-06-04T01:17:04.735Z,38.73
2018-06-04T01:19:33.529Z,40.33
2018-06-04T01:22:02.779Z,39.97
2018-06-04T01:24:31.531Z,40.03
2018-06-04T01:27:00.350Z,39.50
2018-06-04T01:29:29.140Z,40.10
2018-06-04T01:31:57.976Z,38.90
2018-06-04T01:34:27.337Z,40.80
2018-06-04T01:36:56.132Z,42.03
2018-06-04T01:39:25.652Z,42.00
2018-06-04T01:41:54.412Z,41.87
2018-06-04T01:44:23.292Z,42.53
2018-06-04T01:46:52.140Z,42.53
2018-06-04T01:49:20.935Z,44.13
2018-06-04T01:51:49.701Z,43.50
2018-06-04T01:54:18.529Z,46.63
2018-06-04T01:56:47.352Z,45.90
2018-06-04T01:59:16.095Z,42.37
2018-06-04T02:01:44.970Z,42.40
2018-06-04T02:04:13.809Z,41.77
2018-06-04T02:06:43.617Z,41.73
2018-06-04T02:09:12.450Z,44.23
2018-06-04T02:11:41.238Z,43.33
2018-06-04T02:14:10.060Z,45.13
2018-06-04T02:16:38.855Z,44.53
2018-06-04T02:19:07.255Z,47.03
2018-06-04T02:21:36.046Z,45.80
2018-06-04T02:24:04.849Z,48.03
2018-06-04T02:26:33.649Z,48.23
2018-06-04T02:29:02.663Z,48.10
2018-06-04T02:31:31.565Z,47.57
2018-06-04T02:34:00.407Z,49.50
2018-06-04T02:36:29.330Z,49.27
2018-06-04T02:38:58.132Z,48.77
2018-06-04T02:41:26.922Z,51.83
2018-06-04T02:43:55.736Z,48.43
2018-06-04T02:46:24.519Z,51.27
2018-06-04T02:48:53.489Z,48.83
2018-06-04T02:51:22.282Z,50.37
2018-06-04T02:53:51.104Z,51.37
2018-06-04T02:56:19.904Z,50.70
2018-06-04T02:58:48.674Z,51.37
2018-06-04T03:01:17.496Z,52.67
2018-06-04T03:03:46.324Z,51.50
2018-06-04T03:06:15.116Z,51.73
2018-06-04T03:08:43.896Z,49.43
2018-06-04T03:11:12.716Z,51.63
2018-06-04T03:13:41.732Z,48.67
2018-06-04T03:16:11.559Z,49.43
2018-06-04T03:18:40.418Z,48.97
2018-06-04T03:21:09.177Z,50.03
2018-06-04T03:23:37.967Z,49.03
2018-06-04T03:26:06.752Z,50.53
2018-06-04T03:28:36.254Z,49.20
2018-06-04T03:31:05.067Z,48.57
2018-06-04T03:33:33.865Z,48.17
2018-06-04T03:36:02.683Z,48.83
2018-06-04T03:38:31.544Z,48.37
2018-06-04T03:41:00.384Z,47.13
2018-06-04T03:43:30.027Z,47.97
2018-06-04T03:45:58.858Z,48.07
2018-06-04T03:48:27.652Z,46.93
2018-06-04T03:50:56.428Z,45.90
2018-06-04T03:53:25.204Z,46.40
2018-06-04T03:55:53.989Z,47.33
2018-06-04T03:58:22.812Z,46.53
2018-06-04T04:00:51.737Z,45.67
2018-06-04T04:03:20.588Z,45.60
2018-06-04T04:05:49.398Z,45.37
2018-06-04T04:08:18.270Z,45.83
2018-06-04T04:10:47.114Z,46.87
2018-06-04T04:13:15.944Z,46.20
2018-06-04T04:15:44.780Z,44.47
2018-06-04T04:18:13.647Z,46.37
2018-06-04T04:20:42.432Z,46.90
2018-06-04T04:23:11.222Z,44.40
2018-06-04T04:25:40.415Z,45.10
2018-06-04T04:28:09.251Z,44.50
2018-06-04T04:30:38.020Z,44.77
2018-06-04T04:33:06.918Z,43.57
2018-06-04T04:35:36.475Z,45.83
2018-06-04T04:38:05.382Z,45.43
2018-06-04T04:40:34.213Z,45.27
2018-06-04T04:43:03.088Z,47.57
2018-06-04T04:45:31.938Z,44.63
2018-06-04T04:48:01.432Z,46.77
2018-06-04T04:50:30.222Z,45.40
2018-06-04T04:52:59.021Z,44.70
2018-06-04T04:55:27.874Z,43.70
2018-06-04T04:57:56.700Z,42.90
2018-06-04T05:00:25.529Z,41.03
2018-06-04T05:02:54.326Z,42.53
2018-06-04T05:05:23.203Z,40.40
2018-06-04T05:07:51.941Z,39.47
2018-06-04T05:10:20.731Z,41.00
2018-06-04T05:12:49.577Z,41.57
2018-06-04T05:15:18.448Z,42.20
2018-06-04T05:17:47.572Z,40.43
2018-06-04T05:20:16.435Z,41.27
2018-06-04T05:22:45.269Z,40.60
2018-06-04T05:25:14.074Z,40.50
2018-06-04T05:27:42.899Z,43.03
2018-06-04T05:30:11.717Z,40.10
2018-06-04T05:32:40.573Z,40.23
2018-06-04T05:35:09.322Z,42.07
2018-06-04T05:37:38.132Z,39.60
2018-06-04T05:40:06.992Z,41.63
2018-06-04T05:42:35.868Z,42.53
2018-06-04T05:45:04.795Z,42.40
2018-06-04T05:47:33.585Z,40.30
2018-06-04T05:50:02.364Z,39.40
2018-06-04T05:52:31.214Z,39.73
2018-06-04T05:55:00.044Z,41.00
2018-06-04T05:57:28.910Z,42.97
2018-06-04T05:59:57.717Z,40.03
2018-06-04T06:02:26.177Z,38.17
2018-06-04T06:04:54.991Z,38.33
2018-06-04T06:07:23.810Z,38.13
2018-06-04T06:09:52.639Z,37.97
2018-06-04T06:12:21.570Z,37.57
2018-06-04T06:14:50.434Z,38.57
2018-06-04T06:17:19.315Z,37.77
2018-06-04T06:19:48.250Z,36.43
2018-06-04T06:22:17.036Z,37.63
2018-06-04T06:24:45.886Z,36.47
2018-06-04T06:27:14.709Z,34.17
2018-06-04T06:29:43.705Z,33.97
2018-06-04T06:32:12.493Z,35.67
2018-06-04T06:34:41.251Z,35.13
2018-06-04T06:37:10.077Z,35.17
2018-06-04T06:39:38.893Z,32.70
2018-06-04T06:42:07.791Z,31.77
2018-06-04T06:44:36.653Z,33.93
2018-06-04T06:47:05.510Z,34.23
2018-06-04T06:49:34.416Z,32.57
2018-06-04T06:52:03.267Z,33.07
2018-06-04T06:54:32.098Z,32.87
2018-06-04T06:57:00.900Z,30.80
2018-06-04T06:59:29.711Z,31.23
2018-06-04T07:01:58.657Z,32.03
2018-06-04T07:04:27.462Z,31.87
2018-06-04T07:06:56.244Z,31.10
2018-06-04T07:09:25.194Z,31.57
2018-06-04T07:11:54.059Z,32.33
2018-06-04T07:14:22.563Z,33.80
2018-06-04T07:16:51.362Z,32.53
2018-06-04T07:19:20.174Z,31.23
2018-06-04T07:21:49.041Z,31.23
2018-06-04T07:24:17.849Z,31.60
2018-06-04T07:26:47.090Z,31.70
2018-06-04T07:29:15.865Z,33.63
2018-06-04T07:31:44.812Z,33.60
2018-06-04T07:34:14.466Z,33.67
2018-06-04T07:36:43.471Z,33.57
2018-06-04T07:39:12.366Z,32.20
2018-06-04T07:41:41.262Z,31.97
2018-06-04T07:44:10.093Z,33.27
2018-06-04T07:46:38.887Z,33.07
2018-06-04T07:49:07.719Z,32.67
2018-06-04T07:51:36.553Z,32.30
2018-06-04T07:54:05.370Z,33.47
2018-06-04T07:56:34.230Z,34.13
2018-06-04T07:59:03.056Z,32.20
2018-06-04T08:01:31.907Z,31.80
2018-06-04T08:04:00.668Z,32.33
2018-06-04T08:06:29.502Z,32.23
2018-06-04T08:08:58.432Z,30.10
2018-06-04T08:11:26.871Z,32.57
2018-06-04T08:13:55.745Z,29.83
2018-06-04T08:16:24.574Z,30.83
2018-06-04T08:18:53.421Z,30.40
2018-06-04T08:21:22.249Z,31.47
2018-06-04T08:23:51.123Z,31.30
2018-06-04T08:26:20.182Z,32.20
2018-06-04T08:28:49.101Z,31.17
2018-06-04T08:31:17.984Z,30.77
2018-06-04T08:33:46.832Z,31.03
2018-06-04T08:36:15.698Z,32.50
2018-06-04T08:38:44.584Z,30.47
2018-06-04T08:41:13.368Z,30.53
2018-06-04T08:43:42.244Z,30.20
2018-06-04T08:46:11.090Z,30.20
2018-06-04T08:48:39.931Z,29.60
2018-06-04T08:51:08.797Z,28.73
2018-06-04T08:53:37.239Z,28.60
2018-06-04T08:56:06.067Z,28.80
2018-06-04T08:58:35.055Z,29.90
2018-06-04T09:01:03.913Z,29.33
2018-06-04T09:03:32.761Z,28.73
2018-06-04T09:06:01.633Z,27.90
2018-06-04T09:08:30.407Z,25.97
2018-06-04T09:10:59.269Z,26.60
2018-06-04T09:13:28.119Z,28.30
2018-06-04T09:15:56.918Z,27.97
2018-06-04T09:18:25.811Z,26.50
2018-06-04T09:20:54.682Z,26.70
2018-06-04T09:23:23.546Z,27.27
2018-06-04T09:25:52.412Z,24.37
2018-06-04T09:28:21.186Z,25.07
2018-06-04T09:30:50.021Z,24.90
2018-06-04T09:33:18.839Z,25.10
2018-06-04T09:35:47.685Z,25.10
2018-06-04T09:38:16.474Z,25.13
2018-06-04T09:40:46.079Z,24.90
2018-06-04T09:43:14.914Z,25.70
2018-06-04T09:45:43.811Z,24.33
2018-06-04T09:48:12.654Z,25.10
2018-06-04T09:50:41.469Z,24.37
2018-06-04T09:53:10.324Z,24.70
2018-06-04T09:55:39.162Z,26.67
2018-06-04T09:58:08.028Z,25.90
2018-06-04T10:00:39.276Z,26.73
2018-06-04T10:03:08.082Z,26.27
2018-06-04T10:05:36.924Z,25.97
2018-06-04T10:08:05.716Z,26.00
2018-06-04T10:10:34.528Z,24.97
2018-06-04T10:13:03.357Z,24.20
2018-06-04T10:15:32.179Z,23.40
2018-06-04T10:18:01.024Z,23.37
2018-06-04T10:20:29.832Z,23.93
2018-06-04T10:22:58.711Z,22.80
2018-06-04T10:25:27.544Z,23.13
2018-06-04T10:27:56.345Z,23.17
2018-06-04T10:30:25.205Z,22.37
2018-06-04T10:32:54.004Z,24.03
2018-06-04T10:35:22.811Z,22.30
2018-06-04T10:37:51.663Z,22.73
2018-06-04T10:40:20.499Z,25.17
2018-06-04T10:42:49.307Z,24.13
2018-06-04T10:45:18.183Z,23.90
2018-06-04T10:47:47.104Z,24.10
2018-06-04T10:50:15.949Z,25.73
2018-06-04T10:52:44.825Z,25.63
2018-06-04T10:55:13.624Z,27.13
2018-06-04T10:57:42.448Z,25.70
2018-06-04T11:00:10.822Z,25.97
2018-06-04T11:02:39.601Z,25.73
2018-06-04T11:05:08.416Z,24.37
2018-06-04T11:07:37.321Z,25.40
2018-06-04T11:10:06.194Z,24.00
2018-06-04T11:12:35.654Z,26.50
2018-06-04T11:15:04.612Z,25.17
2018-06-04T11:17:33.406Z,25.10
2018-06-04T11:20:02.307Z,23.83
2018-06-04T11:22:31.129Z,25.63
2018-06-04T11:24:59.956Z,25.73
2018-06-04T11:27:28.807Z,26.80
2018-06-04T11:29:57.618Z,24.13
2018-06-04T11:32:26.454Z,28.03
2018-06-04T11:34:54.863Z,26.50
2018-06-04T11:37:23.699Z,24.30
2018-06-04T11:39:52.482Z,26.43
2018-06-04T11:42:21.311Z,26.73
2018-06-04T11:44:50.167Z,27.07
2018-06-04T11:47:19.630Z,23.40
2018-06-04T11:49:48.581Z,24.63
2018-06-04T11:52:17.412Z,25.40
2018-06-04T11:54:46.781Z,24.80
2018-06-04T11:57:15.555Z,26.37
2018-06-04T11:59:44.468Z,26.50
2018-06-04T12:02:13.304Z,23.00
2018-06-04T12:04:42.081Z,24.20
2018-06-04T12:07:10.930Z,24.57
2018-06-04T12:09:39.744Z,22.73
2018-06-04T12:12:08.560Z,23.80
2018-06-04T12:14:37.359Z,23.43
2018-06-04T12:17:06.310Z,23.10
2018-06-04T12:19:35.121Z,26.03
2018-06-04T12:22:03.982Z,21.80
2018-06-04T12:24:32.797Z,23.10
2018-06-04T12:27:01.646Z,22.27
2018-06-04T12:29:30.625Z,23.67
2018-06-04T12:31:59.490Z,21.33
2018-06-04T12:34:28.424Z,23.40
2018-06-04T12:36:57.230Z,23.33
2018-06-04T12:39:26.178Z,20.83
2018-06-04T12:41:55.049Z,19.40
2018-06-04T12:44:23.950Z,19.90
2018-06-04T12:46:52.857Z,20.50
2018-06-04T12:49:21.722Z,18.47
2018-06-04T12:51:50.569Z,19.90
2018-06-04T12:54:19.344Z,19.03
2018-06-04T12:56:48.199Z,19.17
2018-06-04T12:59:17.033Z,21.33
2018-06-04T13:01:45.868Z,21.33
2018-06-04T13:04:14.712Z,21.17
2018-06-04T13:06:43.565Z,19.57
2018-06-04T13:09:12.361Z,19.00
2018-06-04T13:11:41.278Z,19.13
2018-06-04T13:14:10.099Z,17.80
2018-06-04T13:16:38.942Z,18.03
2018-06-04T13:19:10.136Z,20.70
2018-06-04T13:21:39.025Z,21.40
2018-06-04T13:24:07.806Z,20.00
2018-06-04T13:26:36.631Z,20.57
2018-06-04T13:29:05.439Z,20.87
2018-06-04T13:31:34.310Z,21.03
2018-06-04T13:34:03.245Z,18.63
2018-06-04T13:36:32.129Z,22.13
2018-06-04T13:39:00.874Z,20.27
2018-06-04T13:41:29.636Z,17.70
2018-06-04T13:43:58.508Z,18.43
2018-06-04T13:46:27.378Z,15.87
2018-06-04T13:48:56.197Z,14.70
2018-06-04T13:51:25.058Z,15.07
2018-06-04T13:53:53.906Z,15.90
2018-06-04T13:56:22.778Z,15.03
2018-06-04T13:58:51.634Z,15.70
2018-06-04T14:01:20.557Z,16.70
2018-06-04T14:03:49.360Z,16.00
2018-06-04T14:06:18.168Z,16.47
2018-06-04T14:08:47.728Z,16.33
2018-06-04T14:11:16.638Z,16.23
2018-06-04T14:13:45.425Z,14.57
2018-06-04T14:16:14.285Z,16.00
2018-06-04T14:18:43.149Z,15.80
2018-06-04T14:21:13.001Z,16.03
2018-06-04T14:23:41.859Z,14.20
2018-06-04T14:26:10.680Z,16.10
2018-06-04T14:28:39.453Z,15.53
2018-06-04T14:31:08.250Z,13.97
2018-06-04T14:33:36.992Z,13.97
2018-06-04T14:36:05.894Z,11.97
2018-06-04T14:38:34.720Z,13.23
2018-06-04T14:41:03.586Z,11.03
2018-06-04T14:43:32.421Z,11.13
2018-06-04T14:46:01.226Z,11.37
2018-06-04T14:48:30.091Z,14.13
2018-06-04T14:50:58.922Z,13.60
2018-06-04T14:53:27.746Z,13.97
2018-06-04T14:55:56.609Z,11.47
2018-06-04T14:58:26.103Z,11.57
2018-06-04T15:00:54.895Z,11.30
2018-06-04T15:03:23.727Z,12.27
2018-06-04T15:05:52.618Z,11.83
2018-06-04T15:08:21.425Z,13.70
2018-06-04T15:10:50.234Z,14.30
2018-06-04T15:13:19.007Z,14.43
2018-06-04T15:15:48.010Z,12.77
2018-06-04T15:18:16.766Z,12.20
2018-06-04T15:20:46.600Z,12.57
2018-06-04T15:23:16.800Z,10.83
2018-06-04T15:25:45.626Z,9.50
2018-06-04T15:28:14.405Z,10.37
2018-06-04T15:30:43.194Z,9.07
2018-06-04T15:33:12.010Z,9.10
2018-06-04T15:35:40.849Z,11.97
2018-06-04T15:38:09.637Z,12.83
2018-06-04T15:40:38.447Z,11.80
2018-06-04T15:43:07.287Z,12.67
2018-06-04T15:45:36.105Z,11.70
2018-06-04T15:48:04.927Z,11.20
2018-06-04T15:50:33.867Z,11.83
2018-06-04T15:53:02.651Z,12.00
2018-06-04T15:55:31.429Z,10.50
2018-06-04T15:58:00.301Z,11.03
2018-06-04T16:00:29.096Z,9.97
2018-06-04T16:02:57.862Z,9.93
2018-06-04T16:05:26.617Z,9.77
2018-06-04T16:07:55.481Z,10.20
2018-06-04T16:10:24.285Z,8.83
2018-06-04T16:12:53.178Z,8.87
2018-06-04T16:15:21.992Z,9.87
2018-06-04T16:17:50.805Z,9.23
2018-06-04T16:20:19.625Z,9.37
2018-06-04T16:22:48.436Z,8.33
2018-06-04T16:25:17.208Z,7.63
2018-06-04T16:27:46.045Z,8.07
2018-06-04T16:30:14.940Z,7.50
2018-06-04T16:32:43.307Z,6.77
2018-06-04T16:35:11.707Z,7.77
2018-06-04T16:37:40.458Z,7.97
2018-06-04T16:40:09.273Z,8.43
2018-06-04T16:42:38.410Z,8.60
2018-06-04T16:45:07.251Z,7.80
2018-06-04T16:47:36.075Z,7.30
2018-06-04T16:50:05.050Z,8.17
2018-06-04T16:52:33.820Z,8.30
2018-06-04T16:55:02.646Z,8.90
2018-06-04T16:57:31.477Z,8.63
2018-06-04T17:00:00.334Z,8.50
2018-06-04T17:02:29.106Z,7.50
2018-06-04T17:04:57.900Z,7.83
2018-06-04T17:07:26.740Z,7.93
2018-06-04T17:09:55.524Z,8.97
2018-06-04T17:12:24.406Z,7.87
2018-06-04T17:14:53.213Z,7.57
2018-06-04T17:17:22.103Z,8.23
2018-06-04T17:19:50.903Z,8.03
2018-06-04T17:22:19.703Z,8.50
2018-06-04T17:24:48.446Z,8.43
2018-06-04T17:27:17.183Z,9.80
2018-06-04T17:29:45.971Z,8.40
2018-06-04T17:32:14.761Z,9.13
2018-06-04T17:34:43.117Z,8.20
2018-06-04T17:37:11.860Z,8.40
2018-06-04T17:39:40.691Z,8.00
2018-06-04T17:42:09.453Z,8.80
2018-06-04T17:44:38.243Z,7.23
2018-06-04T17:47:07.013Z,7.83
2018-06-04T17:49:35.774Z,9.13
2018-06-04T17:52:04.568Z,8.83
2018-06-04T17:54:33.413Z,8.40
2018-06-04T17:57:02.253Z,8.60
2018-06-04T17:59:31.040Z,9.40
2018-06-04T18:01:59.833Z,8.80
2018-06-04T18:04:28.610Z,9.17
2018-06-04T18:06:57.408Z,9.53
2018-06-04T18:09:26.226Z,10.10
2018-06-04T18:11:55.265Z,9.80
2018-06-04T18:14:24.055Z,9.90
2018-06-04T18:16:52.845Z,9.73
2018-06-04T18:19:21.705Z,11.00
2018-06-04T18:21:50.548Z,10.77
2018-06-04T18:24:19.394Z,10.30
2018-06-04T18:26:48.184Z,10.20
2018-06-04T18:29:16.919Z,10.93
2018-06-04T18:31:45.764Z,11.50
2018-06-04T18:34:14.560Z,12.37
2018-06-04T18:36:43.332Z,13.30
2018-06-04T18:39:12.085Z,13.20
2018-06-04T18:41:40.879Z,12.07
2018-06-04T18:44:09.694Z,13.17
2018-06-04T18:46:38.495Z,13.07
2018-06-04T18:49:07.304Z,12.33
2018-06-04T18:51:36.112Z,12.53
2018-06-04T18:54:04.952Z,12.00
2018-06-04T18:56:33.737Z,12.33
2018-06-04T18:59:02.527Z,13.37
2018-06-04T19:01:31.347Z,12.83
2018-06-04T19:04:00.167Z,14.30
2018-06-04T19:06:28.982Z,12.87
2018-06-04T19:08:57.795Z,13.03
2018-06-04T19:11:26.606Z,13.60
2018-06-04T19:13:55.468Z,14.57
2018-06-04T19:16:24.254Z,13.60
2018-06-04T19:18:53.072Z,14.63
2018-06-04T19:21:22.595Z,14.40
2018-06-04T19:23:51.450Z,14.00
2018-06-04T19:26:20.257Z,14.47
2018-06-04T19:28:49.093Z,14.87
2018-06-04T19:31:17.930Z,14.87
2018-06-04T19:33:46.875Z,15.27
2018-06-04T19:36:15.755Z,14.83
2018-06-04T19:38:44.750Z,15.00
2018-06-04T19:41:13.582Z,15.53
2018-06-04T19:43:42.367Z,15.60
2018-06-04T19:46:11.192Z,15.17
2018-06-04T19:48:39.590Z,15.37
2018-06-04T19:51:08.392Z,15.37
2018-06-04T19:53:37.187Z,16.00
2018-06-04T19:56:06.091Z,15.60
2018-06-04T19:58:34.964Z,14.77
2018-06-04T20:01:03.755Z,15.67
2018-06-04T20:03:32.697Z,15.67
2018-06-04T20:06:01.481Z,14.73
2018-06-04T20:08:30.253Z,15.87
2018-06-04T20:10:59.093Z,16.07
2018-06-04T20:13:27.981Z,14.83
2018-06-04T20:15:56.778Z,14.97
2018-06-04T20:18:25.195Z,15.17
2018-06-04T20:20:53.980Z,15.10
2018-06-04T20:23:22.787Z,15.40
2018-06-04T20:25:51.684Z,15.40
2018-06-04T20:28:20.994Z,15.30
2018-06-04T20:30:49.838Z,14.80
2018-06-04T20:33:18.702Z,15.10
2018-06-04T20:35:47.521Z,15.57
2018-06-04T20:38:16.382Z,15.33
2018-06-04T20:40:45.258Z,16.70
2018-06-04T20:43:14.170Z,15.50
2018-06-04T20:45:42.980Z,15.73
2018-06-04T20:48:11.789Z,15.83
2018-06-04T20:50:40.673Z,15.33
2018-06-04T20:53:09.532Z,15.53
2018-06-04T20:55:38.319Z,16.43
2018-06-04T20:58:07.162Z,15.70
2018-06-04T21:00:36.723Z,15.87
2018-06-04T21:03:05.506Z,15.63
2018-06-04T21:05:34.414Z,15.80
2018-06-04T21:08:03.174Z,16.93
2018-06-04T21:10:31.935Z,15.80
2018-06-04T21:13:00.758Z,15.53
2018-06-04T21:15:29.582Z,15.50
2018-06-04T21:17:58.410Z,15.17
2018-06-04T21:20:27.186Z,15.17
2018-06-04T21:22:55.963Z,15.80
2018-06-04T21:25:24.771Z,15.77
2018-06-04T21:27:53.559Z,15.87
2018-06-04T21:30:22.333Z,15.47
2018-06-04T21:32:51.185Z,16.23
2018-06-04T21:35:19.899Z,16.10
2018-06-04T21:37:48.692Z,16.50
2018-06-04T21:40:17.969Z,15.53
2018-06-04T21:42:46.772Z,17.37
2018-06-04T21:45:15.546Z,16.77
2018-06-04T21:47:44.304Z,16.17
2018-06-04T21:50:13.113Z,15.73
2018-06-04T21:52:41.885Z,16.30
2018-06-04T21:55:10.731Z,17.13
2018-06-04T21:57:39.545Z,15.53
2018-06-04T22:00:09.896Z,15.73
2018-06-04T22:02:39.142Z,17.53
2018-06-04T22:05:07.992Z,17.33
2018-06-04T22:07:36.826Z,16.30
2018-06-04T22:10:06.185Z,16.03
2018-06-04T22:12:34.974Z,15.63
2018-06-04T22:15:03.949Z,15.83
2018-06-04T22:17:32.802Z,15.37
2018-06-04T22:20:01.591Z,16.07
2018-06-04T22:22:30.380Z,15.40
2018-06-04T22:24:59.181Z,17.80
2018-06-04T22:27:27.959Z,17.23
2018-06-04T22:29:56.696Z,18.30
2018-06-04T22:32:25.454Z,17.20
2018-06-04T22:34:54.342Z,18.43
2018-06-04T22:37:23.274Z,17.97
2018-06-04T22:39:52.089Z,17.60
2018-06-04T22:42:20.855Z,18.60
2018-06-04T22:44:49.648Z,17.57
2018-06-04T22:47:18.447Z,17.50
2018-06-04T22:49:47.252Z,16.60
2018-06-04T22:52:16.072Z,16.80
2018-06-04T22:54:44.883Z,17.90
2018-06-04T22:57:13.676Z,17.90
2018-06-04T22:59:42.461Z,17.30
2018-06-04T23:02:11.208Z,16.97
2018-06-04T23:04:40.019Z,17.30
2018-06-04T23:07:08.801Z,18.13
2018-06-04T23:09:37.562Z,17.60
2018-06-04T23:12:06.393Z,17.73
2018-06-04T23:14:35.147Z,16.97
2018-06-04T23:17:03.980Z,17.10
2018-06-04T23:19:32.890Z,15.33
2018-06-04T23:22:01.666Z,16.23
2018-06-04T23:24:30.461Z,15.63
2018-06-04T23:26:59.254Z,15.53
2018-06-04T23:29:28.070Z,16.57
2018-06-04T23:31:56.936Z,16.30
2018-06-04T23:34:25.794Z,16.00
2018-06-04T23:36:54.563Z,16.40
2018-06-04T23:39:23.442Z,16.50
2018-06-04T23:41:52.283Z,15.93
2018-06-04T23:44:21.019Z,16.97
2018-06-04T23:46:49.825Z,15.70
2018-06-04T23:49:18.650Z,15.03
2018-06-04T23:51:47.388Z,15.63
2018-06-04T23:54:16.970Z,15.60
2018-06-04T23:56:45.795Z,15.37
2018-06-04T23:59:14.589Z,15.53
